Time;durP1;ratioP1;P1;durP2;ratioP2;P2;SDS_P1;SDS_P2;PMS_P1;PMS_P2;Temp;Humidity;BMP_temperature;BMP_pressure;BME280_temperature;BME280_humidity;BME280_pressure;Samples;Min_cycle;Max_cycle;Signal;HPM_P1;HPM_P2
2022/12/14 00:00:49;;;;;;;37.45;19.58;;;;;;;;;;5072383;28;20035;-71
2022/12/14 00:03:15;;;;;;;32.03;24.77;;;;;;;;;;5088914;28;20055;-72
2022/12/14 00:05:42;;;;;;;35.42;21.48;;;;;;;;;;5089683;28;20044;-71
2022/12/14 00:08:09;;;;;;;32.55;18.75;;;;;;;;;;5089688;28;20142;-71
2022/12/14 00:10:36;;;;;;;35.17;19.88;;;;;;;;;;5088510;28;20545;-71
2022/12/14 00:13:02;;;;;;;29.75;20.02;;;;;;;;;;5090451;28;20046;-71
2022/12/14 00:15:29;;;;;;;31.52;19.75;;;;;;;;;;5073057;28;20596;-71
2022/12/14 00:17:55;;;;;;;32.65;19.10;;;;;;;;;;5090937;28;20123;-71
2022/12/14 00:20:21;;;;;;;35.33;19.33;;;;;;;;;;5095803;28;20143;-71
2022/12/14 00:22:47;;;;;;;30.95;18.85;;;;;;;;;;5068606;28;20040;-73
2022/12/14 00:25:13;;;;;;;33.50;20.15;;;;;;;;;;5105701;27;20520;-71
2022/12/14 00:27:43;;;;;;;35.58;19.10;;;;;;;;;;5071557;28;20055;-71
2022/12/14 00:30:10;;;;;;;32.08;21.25;;;;;;;;;;5107548;28;20105;-70
2022/12/14 00:32:37;;;;;;;32.05;19.58;;;;;;;;;;5089303;28;20154;-71
2022/12/14 00:35:03;;;;;;;34.60;21.75;;;;;;;;;;5091724;28;20039;-71
2022/12/14 00:37:29;;;;;;;30.15;19.70;;;;;;;;;;5091424;28;20547;-71
2022/12/14 00:39:55;;;;;;;26.27;18.02;;;;;;;;;;5089234;28;20040;-71
2022/12/14 00:42:21;;;;;;;33.35;20.20;;;;;;;;;;5090781;28;20112;-71
2022/12/14 00:44:47;;;;;;;32.45;18.90;;;;;;;;;;5089680;28;20068;-71
2022/12/14 00:47:13;;;;;;;36.63;20.70;;;;;;;;;;5093168;28;21382;-71
2022/12/14 00:49:39;;;;;;;33.92;19.50;;;;;;;;;;5084709;28;20075;-71
2022/12/14 00:52:05;;;;;;;34.25;19.13;;;;;;;;;;5071246;28;20181;-72
2022/12/14 00:54:31;;;;;;;30.38;19.92;;;;;;;;;;5089326;28;20054;-71
2022/12/14 00:56:58;;;;;;;28.38;17.77;;;;;;;;;;5095353;28;20044;-71
2022/12/14 00:59:24;;;;;;;32.15;21.25;;;;;;;;;;5088912;28;20051;-71
2022/12/14 01:01:50;;;;;;;28.38;18.35;;;;;;;;;;5076483;28;20036;-71
2022/12/14 01:04:16;;;;;;;32.10;17.58;;;;;;;;;;5097168;28;20425;-71
2022/12/14 01:06:46;;;;;;;40.22;22.95;;;;;;;;;;5096530;28;20485;-71
2022/12/14 01:09:12;;;;;;;32.72;19.73;;;;;;;;;;5099216;28;20480;-71
2022/12/14 01:11:47;;;;;;;29.17;18.88;;;;;;;;;;5093409;28;20118;-72
2022/12/14 01:14:14;;;;;;;26.70;18.80;;;;;;;;;;5078961;28;20409;-71
2022/12/14 01:16:40;;;;;;;33.03;18.77;;;;;;;;;;5099030;28;20043;-71
2022/12/14 01:19:07;;;;;;;30.65;19.25;;;;;;;;;;5092783;28;20466;-71
2022/12/14 01:21:33;;;;;;;34.80;21.00;;;;;;;;;;5066997;28;20039;-72
2022/12/14 01:24:01;;;;;;;35.28;21.73;;;;;;;;;;5089995;28;20040;-71
2022/12/14 01:26:29;;;;;;;32.10;20.80;;;;;;;;;;5097367;28;20397;-71
2022/12/14 01:28:56;;;;;;;38.72;21.50;;;;;;;;;;5064242;28;20506;-71
2022/12/14 01:31:31;;;;;;;31.20;22.25;;;;;;;;;;5088002;28;20481;-71
2022/12/14 01:33:58;;;;;;;32.03;20.27;;;;;;;;;;5112095;27;20043;-71
2022/12/14 01:36:29;;;;;;;32.75;19.48;;;;;;;;;;5092703;28;20044;-71
2022/12/14 01:38:57;;;;;;;33.33;20.15;;;;;;;;;;5092465;28;20060;-71
2022/12/14 01:41:27;;;;;;;31.55;20.05;;;;;;;;;;5092168;28;20047;-70
2022/12/14 01:43:55;;;;;;;33.25;20.10;;;;;;;;;;5096301;28;20119;-70
2022/12/14 01:46:34;;;;;;;36.00;20.88;;;;;;;;;;5078964;28;20044;-70
2022/12/14 01:49:03;;;;;;;36.63;21.98;;;;;;;;;;5094787;28;20485;-71
2022/12/14 01:51:30;;;;;;;33.72;21.00;;;;;;;;;;5092029;28;20283;-70
2022/12/14 01:53:57;;;;;;;32.42;20.50;;;;;;;;;;5079275;28;20039;-70
2022/12/14 01:56:24;;;;;;;36.05;19.70;;;;;;;;;;5091889;28;20044;-70
2022/12/14 01:58:50;;;;;;;30.98;18.83;;;;;;;;;;5087855;28;20494;-70
2022/12/14 02:01:16;;;;;;;35.03;20.85;;;;;;;;;;5080890;28;20046;-70
2022/12/14 02:03:45;;;;;;;32.97;20.15;;;;;;;;;;5088754;28;20056;-70
2022/12/14 02:06:13;;;;;;;29.08;19.90;;;;;;;;;;5089931;28;20055;-70
2022/12/14 02:08:42;;;;;;;33.92;22.13;;;;;;;;;;5092038;28;20428;-69
2022/12/14 02:11:08;;;;;;;32.38;20.70;;;;;;;;;;5079370;28;20444;-73
2022/12/14 02:13:41;;;;;;;33.10;19.98;;;;;;;;;;5097885;28;20120;-70
2022/12/14 02:16:08;;;;;;;32.03;19.30;;;;;;;;;;5092209;28;20040;-70
2022/12/14 02:18:34;;;;;;;27.98;18.73;;;;;;;;;;5092364;28;20032;-70
2022/12/14 02:21:03;;;;;;;29.65;19.63;;;;;;;;;;5098447;28;20040;-70
2022/12/14 02:23:42;;;;;;;31.63;18.10;;;;;;;;;;5104691;27;20054;-70
2022/12/14 02:26:11;;;;;;;31.13;18.70;;;;;;;;;;5089443;28;20040;-71
2022/12/14 02:28:46;;;;;;;28.48;19.00;;;;;;;;;;5098422;28;20374;-70
2022/12/14 02:31:15;;;;;;;31.23;18.48;;;;;;;;;;5093524;28;20051;-70
2022/12/14 02:33:48;;;;;;;32.20;19.35;;;;;;;;;;5088663;28;20448;-71
2022/12/14 02:36:26;;;;;;;29.65;19.40;;;;;;;;;;5078003;28;20518;-70
2022/12/14 02:38:52;;;;;;;29.52;19.08;;;;;;;;;;5089716;28;20039;-69
2022/12/14 02:41:24;;;;;;;33.50;22.98;;;;;;;;;;5100542;28;20457;-70
2022/12/14 02:43:50;;;;;;;34.53;20.20;;;;;;;;;;5090270;28;20028;-71
2022/12/14 02:46:36;;;;;;;29.92;19.85;;;;;;;;;;5089353;28;20077;-70
2022/12/14 02:49:09;;;;;;;31.67;19.52;;;;;;;;;;5094635;28;20523;-71
2022/12/14 02:51:38;;;;;;;30.50;19.60;;;;;;;;;;5075548;28;20120;-71
2022/12/14 02:54:09;;;;;;;34.08;20.80;;;;;;;;;;5091679;28;20067;-70
2022/12/14 02:56:42;;;;;;;31.45;19.30;;;;;;;;;;5090500;28;20036;-72
2022/12/14 02:59:09;;;;;;;35.72;21.00;;;;;;;;;;5091793;28;20040;-71
2022/12/14 03:01:35;;;;;;;34.45;19.98;;;;;;;;;;5072683;28;20040;-70
2022/12/14 03:04:02;;;;;;;30.30;19.05;;;;;;;;;;5083490;28;20132;-70
2022/12/14 03:06:29;;;;;;;28.50;19.25;;;;;;;;;;5091568;28;20039;-71
2022/12/14 03:09:03;;;;;;;35.35;18.80;;;;;;;;;;5089147;28;20033;-71
2022/12/14 03:11:49;;;;;;;32.30;19.48;;;;;;;;;;5085620;28;20043;-70
2022/12/14 03:14:23;;;;;;;29.75;18.13;;;;;;;;;;5071661;28;20044;-71
2022/12/14 03:16:51;;;;;;;34.08;18.52;;;;;;;;;;5091571;28;20032;-71
2022/12/14 03:19:26;;;;;;;30.38;18.73;;;;;;;;;;5077175;28;20028;-70
2022/12/14 03:21:57;;;;;;;37.80;19.60;;;;;;;;;;5068477;28;20036;-71
2022/12/14 03:24:25;;;;;;;36.75;20.80;;;;;;;;;;5067772;28;20123;-71
2022/12/14 03:27:10;;;;;;;25.38;18.38;;;;;;;;;;5079671;28;20047;-71
2022/12/14 03:29:41;;;;;;;28.77;19.55;;;;;;;;;;5091981;28;20043;-72
2022/12/14 03:32:13;;;;;;;28.17;18.67;;;;;;;;;;5095170;28;20050;-71
2022/12/14 03:34:45;;;;;;;31.20;19.92;;;;;;;;;;5072388;28;20051;-71
2022/12/14 03:37:27;;;;;;;30.42;17.60;;;;;;;;;;5072965;28;20122;-71
2022/12/14 03:39:53;;;;;;;27.85;18.08;;;;;;;;;;5089835;28;20028;-71
2022/12/14 03:42:38;;;;;;;31.67;19.08;;;;;;;;;;5090574;28;20562;-71
2022/12/14 03:45:07;;;;;;;30.23;17.48;;;;;;;;;;5087952;28;20043;-70
2022/12/14 03:47:51;;;;;;;28.70;16.77;;;;;;;;;;5086247;28;20110;-70
2022/12/14 03:50:32;;;;;;;30.77;18.75;;;;;;;;;;5087150;28;20040;-70
2022/12/14 03:53:06;;;;;;;31.10;20.35;;;;;;;;;;5072015;28;20044;-70
2022/12/14 03:55:35;;;;;;;33.85;20.02;;;;;;;;;;5100145;28;20032;-71
2022/12/14 03:58:13;;;;;;;29.40;18.67;;;;;;;;;;5086067;28;20547;-71
2022/12/14 04:00:48;;;;;;;37.40;21.10;;;;;;;;;;5067627;28;20032;-70
2022/12/14 04:03:37;;;;;;;37.22;18.33;;;;;;;;;;5094541;28;20133;-70
2022/12/14 04:06:12;;;;;;;32.28;19.02;;;;;;;;;;5080283;28;20866;-70
2022/12/14 04:08:39;;;;;;;29.40;19.42;;;;;;;;;;5082070;28;20036;-70
2022/12/14 04:19:34;;;;;;;31.17;19.13;;;;;;;;;;5066659;28;20048;-70
2022/12/14 04:22:21;;;;;;;28.05;17.95;;;;;;;;;;5089182;28;20059;-71
2022/12/14 04:27:50;;;;;;;;;;;;;;;;;;5088518;28;20047;-72
2022/12/14 04:30:17;;;;;;;30.42;18.00;;;;;;;;;;5103886;28;20327;-71
2022/12/14 04:32:48;;;;;;;31.75;18.10;;;;;;;;;;5089452;28;20040;-72
2022/12/14 04:35:17;;;;;;;30.15;17.83;;;;;;;;;;5089180;28;20051;-72
2022/12/14 04:37:44;;;;;;;30.05;18.63;;;;;;;;;;5080727;28;20044;-71
2022/12/14 04:40:12;;;;;;;29.00;17.63;;;;;;;;;;5095899;28;20043;-70
2022/12/14 04:42:45;;;;;;;29.38;18.27;;;;;;;;;;5096261;28;20111;-71
2022/12/14 04:45:14;;;;;;;35.13;19.23;;;;;;;;;;5073316;28;20613;-71
2022/12/14 04:47:43;;;;;;;26.95;17.73;;;;;;;;;;5095212;28;20039;-71
2022/12/14 04:50:14;;;;;;;32.67;18.75;;;;;;;;;;5069979;28;20123;-70
2022/12/14 04:52:45;;;;;;;28.85;15.88;;;;;;;;;;5093001;28;20040;-71
2022/12/14 04:55:15;;;;;;;30.65;18.77;;;;;;;;;;5079347;28;20040;-71
2022/12/14 04:57:46;;;;;;;29.08;18.15;;;;;;;;;;5093026;28;20108;-71
2022/12/14 05:00:12;;;;;;;27.95;19.83;;;;;;;;;;5085663;28;20558;-70
2022/12/14 05:02:38;;;;;;;29.98;18.95;;;;;;;;;;5095971;28;20040;-71
2022/12/14 05:05:23;;;;;;;32.05;20.35;;;;;;;;;;5093165;28;20048;-70
2022/12/14 05:08:02;;;;;;;34.35;19.95;;;;;;;;;;5097862;28;20050;-72
2022/12/14 05:10:48;;;;;;;30.10;17.33;;;;;;;;;;5089275;28;20116;-70
2022/12/14 05:13:18;;;;;;;31.30;19.23;;;;;;;;;;5096466;28;20391;-70
2022/12/14 05:15:52;;;;;;;31.60;19.60;;;;;;;;;;5095821;28;20036;-70
2022/12/14 05:18:19;;;;;;;34.47;18.67;;;;;;;;;;5079916;28;20563;-70
2022/12/14 05:20:46;;;;;;;30.85;19.30;;;;;;;;;;5092617;28;20035;-70
2022/12/14 05:23:12;;;;;;;28.88;17.88;;;;;;;;;;5062959;28;20043;-70
2022/12/14 05:25:38;;;;;;;31.67;18.65;;;;;;;;;;5091879;28;20036;-70
2022/12/14 05:28:04;;;;;;;42.47;19.20;;;;;;;;;;5072827;28;20130;-70
2022/12/14 05:30:30;;;;;;;28.90;18.85;;;;;;;;;;5090144;28;20040;-70
2022/12/14 05:32:57;;;;;;;27.33;17.08;;;;;;;;;;5095399;28;20063;-70
2022/12/14 05:35:23;;;;;;;32.67;19.33;;;;;;;;;;5091006;28;20030;-70
2022/12/14 05:37:49;;;;;;;29.05;17.05;;;;;;;;;;5093465;28;20044;-70
2022/12/14 05:40:15;;;;;;;28.63;17.90;;;;;;;;;;5094362;28;20496;-71
2022/12/14 05:42:41;;;;;;;32.80;18.45;;;;;;;;;;5057965;28;20066;-70
2022/12/14 05:45:09;;;;;;;31.08;18.98;;;;;;;;;;5089659;28;20559;-71
2022/12/14 05:47:35;;;;;;;39.33;18.42;;;;;;;;;;5083643;28;20047;-70
2022/12/14 05:50:01;;;;;;;31.48;18.88;;;;;;;;;;5084896;28;20116;-70
2022/12/14 05:52:27;;;;;;;27.83;17.13;;;;;;;;;;5093948;28;20270;-70
2022/12/14 05:54:53;;;;;;;34.10;18.05;;;;;;;;;;5091606;28;20032;-69
2022/12/14 05:57:19;;;;;;;26.85;17.02;;;;;;;;;;5085716;28;20474;-70
2022/12/14 05:59:45;;;;;;;24.88;16.95;;;;;;;;;;5091428;28;20050;-70
2022/12/14 06:02:12;;;;;;;37.10;17.98;;;;;;;;;;5068128;28;20043;-70
2022/12/14 06:04:38;;;;;;;25.48;16.10;;;;;;;;;;5054717;28;20045;-71
2022/12/14 06:07:04;;;;;;;30.13;18.70;;;;;;;;;;5065652;28;20098;-70
2022/12/14 06:09:30;;;;;;;32.65;19.42;;;;;;;;;;5068426;28;20040;-70
2022/12/14 06:11:56;;;;;;;30.58;19.63;;;;;;;;;;5085416;28;20054;-70
2022/12/14 06:14:24;;;;;;;36.30;22.02;;;;;;;;;;5067749;28;20040;-70
2022/12/14 06:16:50;;;;;;;32.90;21.70;;;;;;;;;;5083155;28;20044;-70
2022/12/14 06:19:16;;;;;;;33.45;20.63;;;;;;;;;;5076909;28;20036;-70
2022/12/14 06:21:43;;;;;;;29.88;19.63;;;;;;;;;;5088202;28;20097;-70
2022/12/14 06:24:11;;;;;;;36.35;19.13;;;;;;;;;;5102510;27;20264;-70
2022/12/14 06:26:39;;;;;;;28.13;18.02;;;;;;;;;;5100616;28;20062;-70
2022/12/14 06:29:06;;;;;;;29.20;17.88;;;;;;;;;;5092020;28;20505;-70
2022/12/14 06:31:33;;;;;;;31.58;17.75;;;;;;;;;;5093052;28;20075;-70
2022/12/14 06:34:00;;;;;;;29.10;17.30;;;;;;;;;;5095819;28;20089;-70
2022/12/14 06:36:28;;;;;;;32.63;19.23;;;;;;;;;;5079733;28;20408;-71
2022/12/14 06:38:54;;;;;;;29.25;16.67;;;;;;;;;;5075178;28;20129;-71
2022/12/14 06:41:21;;;;;;;35.92;19.88;;;;;;;;;;5086577;28;20077;-71
2022/12/14 06:43:47;;;;;;;32.55;18.55;;;;;;;;;;5076533;28;20043;-71
2022/12/14 06:46:15;;;;;;;27.05;17.83;;;;;;;;;;5087416;28;20114;-71
2022/12/14 06:48:41;;;;;;;30.70;19.08;;;;;;;;;;5090500;28;20032;-71
2022/12/14 06:51:07;;;;;;;26.02;16.25;;;;;;;;;;5097672;28;20065;-71
2022/12/14 06:53:34;;;;;;;29.98;18.15;;;;;;;;;;5081406;28;20099;-71
2022/12/14 06:56:14;;;;;;;37.30;18.65;;;;;;;;;;5089720;28;20127;-71
2022/12/14 06:58:41;;;;;;;29.27;19.42;;;;;;;;;;5085642;28;20051;-71
2022/12/14 07:01:14;;;;;;;24.38;17.35;;;;;;;;;;5093939;28;20043;-71
2022/12/14 07:03:41;;;;;;;29.48;17.08;;;;;;;;;;5086005;28;20069;-71
2022/12/14 07:06:07;;;;;;;28.05;18.30;;;;;;;;;;5089755;28;20044;-70
2022/12/14 07:08:35;;;;;;;25.58;17.80;;;;;;;;;;5093467;28;20466;-71
2022/12/14 07:11:08;;;;;;;36.35;19.00;;;;;;;;;;5090808;28;20126;-71
2022/12/14 07:13:35;;;;;;;33.10;17.92;;;;;;;;;;5093430;28;20458;-71
2022/12/14 07:16:01;;;;;;;30.00;17.65;;;;;;;;;;5089736;28;20075;-70
2022/12/14 07:18:28;;;;;;;29.88;18.33;;;;;;;;;;5089223;28;20043;-72
2022/12/14 07:21:11;;;;;;;34.03;19.10;;;;;;;;;;5093761;28;20135;-71
2022/12/14 07:23:38;;;;;;;31.15;17.85;;;;;;;;;;5074307;28;20032;-69
2022/12/14 07:26:05;;;;;;;30.17;19.23;;;;;;;;;;5092198;28;20043;-71
2022/12/14 07:28:32;;;;;;;37.63;20.60;;;;;;;;;;5067182;28;20109;-71
2022/12/14 07:30:59;;;;;;;41.55;21.25;;;;;;;;;;5089119;28;20085;-71
2022/12/14 07:33:25;;;;;;;32.13;19.33;;;;;;;;;;5091028;28;20042;-70
2022/12/14 07:35:51;;;;;;;39.80;21.73;;;;;;;;;;5089512;28;20101;-70
2022/12/14 07:38:18;;;;;;;36.63;21.52;;;;;;;;;;5084449;28;20044;-70
2022/12/14 07:40:44;;;;;;;37.65;22.23;;;;;;;;;;5082089;28;20106;-70
2022/12/14 07:43:11;;;;;;;41.38;23.63;;;;;;;;;;5089183;28;20036;-70
2022/12/14 07:45:37;;;;;;;35.25;21.58;;;;;;;;;;5053458;28;20036;-71
2022/12/14 07:48:06;;;;;;;39.88;23.77;;;;;;;;;;5072209;28;20105;-72
2022/12/14 07:50:32;;;;;;;32.53;19.67;;;;;;;;;;5090999;28;20055;-71
2022/12/14 07:52:58;;;;;;;30.10;19.15;;;;;;;;;;5073464;28;20075;-71
2022/12/14 07:55:24;;;;;;;33.15;20.95;;;;;;;;;;5106985;27;20093;-71
2022/12/14 07:57:50;;;;;;;33.95;21.40;;;;;;;;;;5068247;28;20032;-72
2022/12/14 08:00:17;;;;;;;27.73;18.63;;;;;;;;;;5072202;28;20047;-72
2022/12/14 08:02:43;;;;;;;35.08;20.67;;;;;;;;;;5099338;28;20516;-71
2022/12/14 08:05:10;;;;;;;30.70;18.45;;;;;;;;;;5090640;28;20078;-71
2022/12/14 08:07:36;;;;;;;37.38;19.80;;;;;;;;;;5084413;28;20051;-71
2022/12/14 08:10:02;;;;;;;35.85;20.67;;;;;;;;;;5088135;28;20104;-68
2022/12/14 08:12:28;;;;;;;38.03;23.50;;;;;;;;;;5079798;28;20326;-71
2022/12/14 08:14:54;;;;;;;38.28;20.75;;;;;;;;;;5070831;28;20115;-71
2022/12/14 08:17:20;;;;;;;36.47;21.55;;;;;;;;;;5091418;28;20511;-71
2022/12/14 08:19:46;;;;;;;31.10;20.35;;;;;;;;;;5088757;28;20036;-71
2022/12/14 08:22:12;;;;;;;41.63;21.10;;;;;;;;;;5088938;28;20595;-71
2022/12/14 08:24:39;;;;;;;40.08;22.23;;;;;;;;;;5084385;28;20064;-71
2022/12/14 08:27:05;;;;;;;33.10;20.35;;;;;;;;;;5083694;28;20127;-71
2022/12/14 08:29:31;;;;;;;37.67;22.30;;;;;;;;;;5087625;28;20170;-71
2022/12/14 08:31:58;;;;;;;30.17;22.10;;;;;;;;;;5074010;28;20181;-71
2022/12/14 08:34:24;;;;;;;39.85;22.48;;;;;;;;;;5089760;28;20051;-71
2022/12/14 08:36:50;;;;;;;34.30;20.08;;;;;;;;;;5091008;28;20079;-71
2022/12/14 08:39:16;;;;;;;38.00;21.67;;;;;;;;;;5088591;28;20436;-71
2022/12/14 08:41:42;;;;;;;26.52;17.45;;;;;;;;;;5098433;28;20112;-71
2022/12/14 08:44:08;;;;;;;33.58;18.40;;;;;;;;;;5087544;28;20039;-71
2022/12/14 08:46:36;;;;;;;34.30;21.10;;;;;;;;;;5089921;28;20472;-71
2022/12/14 08:49:02;;;;;;;30.30;18.60;;;;;;;;;;5088595;28;20044;-71
2022/12/14 08:51:28;;;;;;;33.28;19.58;;;;;;;;;;5073841;28;20044;-71
2022/12/14 08:53:55;;;;;;;35.03;20.52;;;;;;;;;;5069639;28;20035;-71
2022/12/14 08:56:23;;;;;;;43.03;23.10;;;;;;;;;;5080651;28;20425;-72
2022/12/14 08:58:50;;;;;;;35.15;22.42;;;;;;;;;;5078718;28;20119;-70
2022/12/14 09:01:26;;;;;;;43.10;24.05;;;;;;;;;;5082984;28;20081;-71
2022/12/14 09:03:52;;;;;;;37.63;22.88;;;;;;;;;;5090565;28;20131;-71
2022/12/14 09:06:23;;;;;;;36.10;21.00;;;;;;;;;;5084679;28;20043;-71
2022/12/14 09:08:50;;;;;;;37.38;23.33;;;;;;;;;;5087629;28;20036;-71
2022/12/14 09:11:16;;;;;;;33.47;18.90;;;;;;;;;;5072066;28;20040;-71
2022/12/14 09:13:43;;;;;;;39.90;21.58;;;;;;;;;;5090053;28;20039;-72
2022/12/14 09:16:14;;;;;;;29.17;17.27;;;;;;;;;;5076360;28;20103;-71
2022/12/14 09:18:40;;;;;;;40.70;19.88;;;;;;;;;;5083845;28;20040;-71
2022/12/14 09:21:06;;;;;;;31.05;20.50;;;;;;;;;;5087914;28;20130;-71
2022/12/14 09:23:34;;;;;;;34.00;19.17;;;;;;;;;;5090222;28;20032;-70
2022/12/14 09:26:05;;;;;;;37.33;18.92;;;;;;;;;;5103479;28;20032;-70
2022/12/14 09:28:31;;;;;;;31.15;18.50;;;;;;;;;;5096601;28;20032;-73
2022/12/14 09:30:58;;;;;;;34.10;19.30;;;;;;;;;;5090489;28;20040;-72
2022/12/14 09:33:25;;;;;;;37.67;19.30;;;;;;;;;;5094405;28;20078;-71
2022/12/14 09:35:52;;;;;;;27.13;17.52;;;;;;;;;;5101381;28;20039;-72
2022/12/14 09:38:18;;;;;;;33.53;21.02;;;;;;;;;;5096963;28;20044;-73
2022/12/14 09:40:49;;;;;;;26.85;18.42;;;;;;;;;;5101495;28;20068;-72
2022/12/14 09:43:23;;;;;;;31.90;19.55;;;;;;;;;;5102294;28;20040;-72
2022/12/14 09:45:53;;;;;;;29.52;18.63;;;;;;;;;;5076110;28;20032;-72
2022/12/14 09:48:20;;;;;;;28.52;17.65;;;;;;;;;;5093815;28;20048;-72
2022/12/14 09:50:50;;;;;;;28.55;18.77;;;;;;;;;;5081198;28;20074;-72
2022/12/14 09:53:17;;;;;;;34.88;19.55;;;;;;;;;;5091677;28;20381;-72
2022/12/14 09:55:48;;;;;;;29.85;19.15;;;;;;;;;;5089579;28;20067;-73
2022/12/14 09:58:17;;;;;;;37.75;20.17;;;;;;;;;;5086096;28;20133;-73
2022/12/14 10:00:47;;;;;;;33.05;20.17;;;;;;;;;;5113821;27;20076;-73
2022/12/14 10:03:22;;;;;;;34.63;22.55;;;;;;;;;;5095291;28;20055;-71
2022/12/14 10:05:54;;;;;;;31.50;18.70;;;;;;;;;;5069982;28;20044;-73
2022/12/14 10:08:37;;;;;;;30.90;19.65;;;;;;;;;;5089781;28;20524;-73
2022/12/14 10:11:03;;;;;;;;;;;;;;;;;;5089605;28;20044;-73
2022/12/14 10:13:48;;;;;;;31.77;18.98;;;;;;;;;;5084854;28;20381;-73
2022/12/14 10:16:20;;;;;;;31.73;19.80;;;;;;;;;;5077246;28;20071;-73
2022/12/14 10:18:52;;;;;;;29.63;18.70;;;;;;;;;;5085903;28;20043;-73
2022/12/14 10:21:21;;;;;;;31.13;19.17;;;;;;;;;;5083750;28;20512;-73
2022/12/14 10:23:58;;;;;;;33.65;21.45;;;;;;;;;;5105618;27;20088;-73
2022/12/14 10:26:35;;;;;;;36.00;18.85;;;;;;;;;;5075605;28;20032;-73
2022/12/14 10:29:04;;;;;;;26.35;17.55;;;;;;;;;;5077194;28;20440;-73
2022/12/14 10:31:49;;;;;;;31.95;18.00;;;;;;;;;;5069497;28;20043;-72
2022/12/14 10:34:19;;;;;;;24.23;12.82;;;;;;;;;;5086541;28;20119;-73
2022/12/14 10:37:02;;;;;;;32.05;16.95;;;;;;;;;;5088786;28;20490;-73
2022/12/14 10:39:47;;;;;;;27.63;17.40;;;;;;;;;;5090078;28;20166;-73
2022/12/14 10:42:31;;;;;;;26.75;15.75;;;;;;;;;;5089172;28;20500;-73
2022/12/14 10:45:10;;;;;;;25.60;15.63;;;;;;;;;;5088944;28;20064;-72
2022/12/14 10:47:48;;;;;;;28.10;15.10;;;;;;;;;;5091125;28;20040;-73
2022/12/14 10:50:19;;;;;;;29.45;15.10;;;;;;;;;;5086413;28;20040;-72
2022/12/14 10:52:46;;;;;;;26.05;15.50;;;;;;;;;;5089756;28;20478;-73
2022/12/14 10:55:15;;;;;;;23.52;17.40;;;;;;;;;;5083743;28;21028;-73
2022/12/14 10:57:41;;;;;;;25.35;14.18;;;;;;;;;;5092686;28;20043;-72
2022/12/14 11:00:11;;;;;;;24.42;14.30;;;;;;;;;;5096840;28;20183;-73
2022/12/14 11:02:42;;;;;;;24.33;14.52;;;;;;;;;;5069977;28;20040;-73
2022/12/14 11:05:11;;;;;;;27.90;17.83;;;;;;;;;;5078919;28;20611;-73
2022/12/14 11:07:39;;;;;;;25.67;14.10;;;;;;;;;;5090471;28;20044;-73
2022/12/14 11:10:15;;;;;;;25.80;13.10;;;;;;;;;;5088707;28;20035;-73
2022/12/14 11:12:52;;;;;;;23.45;14.23;;;;;;;;;;5090667;28;20040;-74
2022/12/14 11:15:27;;;;;;;25.73;13.77;;;;;;;;;;5094392;28;20043;-74
2022/12/14 11:18:00;;;;;;;17.77;13.75;;;;;;;;;;5087323;28;20046;-74
2022/12/14 11:20:26;;;;;;;22.50;12.43;;;;;;;;;;5092369;28;20028;-74
2022/12/14 11:22:54;;;;;;;20.45;12.13;;;;;;;;;;5091104;28;20036;-74
2022/12/14 11:25:31;;;;;;;18.27;10.93;;;;;;;;;;5079094;28;20086;-75
2022/12/14 11:28:01;;;;;;;22.38;12.15;;;;;;;;;;5090835;28;20574;-74
2022/12/14 11:30:28;;;;;;;16.67;11.57;;;;;;;;;;5088841;28;20039;-74
2022/12/14 11:32:54;;;;;;;16.10;10.90;;;;;;;;;;5088314;28;20071;-75
2022/12/14 11:35:21;;;;;;;21.83;12.40;;;;;;;;;;5080692;28;20040;-75
2022/12/14 11:37:50;;;;;;;19.08;12.73;;;;;;;;;;5055549;28;20035;-75
2022/12/14 11:40:22;;;;;;;19.35;12.70;;;;;;;;;;5097601;28;20057;-75
2022/12/14 11:42:50;;;;;;;19.07;11.70;;;;;;;;;;5099588;28;20042;-72
2022/12/14 11:45:28;;;;;;;18.08;11.93;;;;;;;;;;5086894;28;20043;-72
2022/12/14 11:48:13;;;;;;;19.67;11.93;;;8.90;93.70;;;;;;5088264;28;20040;-71
2022/12/14 11:50:39;;;;;;;19.88;12.23;;;;;;;;;;5093396;28;20051;-71
2022/12/14 11:53:08;;;;;;;18.83;13.27;;;6.00;99.90;;;;;;5089299;28;20044;-74
2022/12/14 11:55:37;;;;;;;17.92;12.32;;;;;;;;;;5085709;28;20040;-72
2022/12/14 11:58:10;;;;;;;17.05;10.95;;;6.50;99.90;;;;;;5063213;28;20112;-72
2022/12/14 12:00:44;;;;;;;17.08;11.15;;;;;;;;;;5085505;28;20036;-69
2022/12/14 12:03:15;;;;;;;18.48;11.88;;;;;;;;;;5090154;28;20063;-73
2022/12/14 12:05:42;;;;;;;15.52;11.15;;;;;;;;;;5098428;27;20292;-72
2022/12/14 12:08:26;;;;;;;17.40;12.35;;;7.10;99.90;;;;;;5094367;28;20051;-73
2022/12/14 12:10:56;;;;;;;15.38;11.15;;;;;;;;;;5086273;28;20028;-73
2022/12/14 12:13:36;;;;;;;16.73;12.50;;;;;;;;;;5094547;28;20032;-73
2022/12/14 12:16:12;;;;;;;19.80;12.05;;;;;;;;;;5073798;28;20126;-73
2022/12/14 12:18:59;;;;;;;16.50;11.90;;;;;;;;;;5082128;28;20120;-74
2022/12/14 12:21:30;;;;;;;17.52;11.90;;;8.70;92.90;;;;;;5089736;28;20036;-73
2022/12/14 12:24:00;;;;;;;14.73;10.85;;;8.70;92.30;;;;;;5075963;28;20055;-74
2022/12/14 12:26:32;;;;;;;16.50;11.15;;;;;;;;;;5077871;28;20039;-74
2022/12/14 12:29:04;;;;;;;15.50;10.13;;;;;;;;;;5073985;28;20032;-74
2022/12/14 12:31:53;;;;;;;16.33;10.50;;;;;;;;;;5073968;28;20105;-73
2022/12/14 12:34:24;;;;;;;15.05;10.52;;;;;;;;;;5077429;28;20040;-74
2022/12/14 12:36:52;;;;;;;13.98;10.15;;;8.40;93.10;;;;;;5079227;28;20059;-74
2022/12/14 12:39:23;;;;;;;15.68;10.30;;;8.40;92.70;;;;;;5079137;28;20374;-73
2022/12/14 12:41:59;;;;;;;16.48;11.90;;;8.40;91.50;;;;;;5071898;28;20135;-74
2022/12/14 12:44:46;;;;;;;13.32;10.57;;;8.40;90.00;;;;;;5089540;28;20067;-74
2022/12/14 12:47:33;;;;;;;20.92;11.85;;;8.30;89.10;;;;;;5073459;28;20159;-74
2022/12/14 12:50:12;;;;;;;16.17;10.52;;;7.90;85.90;;;;;;5077430;28;20048;-74
2022/12/14 12:53:05;;;;;;;17.30;10.82;;;7.70;87.90;;;;;;5096054;28;20043;-73
2022/12/14 12:55:42;;;;;;;14.68;10.90;;;7.30;88.30;;;;;;5047662;28;20478;-74
2022/12/14 12:58:12;;;;;;;15.23;10.55;;;;;;;;;;5086375;28;20039;-73
2022/12/14 13:00:40;;;;;;;17.40;12.02;;;;;;;;;;5068313;28;20195;-73
2022/12/14 13:03:35;;;;;;;14.38;10.70;;;;;;;;;;5089972;28;20595;-73
2022/12/14 13:06:21;;;;;;;13.40;10.02;;;;;;;;;;5057904;28;20040;-73
2022/12/14 13:08:54;;;;;;;15.98;9.85;;;7.10;90.30;;;;;;5104798;27;20040;-73
2022/12/14 13:11:25;;;;;;;13.82;9.73;;;;;;;;;;5075724;28;20402;-73
2022/12/14 13:13:53;;;;;;;16.20;10.90;;;;;;;;;;5087119;28;20043;-73
2022/12/14 13:16:19;;;;;;;15.40;11.18;;;;;;;;;;5100952;28;20077;-72
2022/12/14 13:18:50;;;;;;;17.52;11.10;;;;;;;;;;5089008;28;20051;-74
2022/12/14 13:21:22;;;;;;;16.00;10.23;;;;;;;;;;5082451;28;20055;-73
2022/12/14 13:23:48;;;;;;;15.70;11.23;;;;;;;;;;5068355;28;20043;-73
2022/12/14 13:26:14;;;;;;;15.73;10.02;;;;;;;;;;5062415;28;20039;-73
2022/12/14 13:28:50;;;;;;;15.45;10.15;;;;;;;;;;5062479;28;20036;-73
2022/12/14 13:31:16;;;;;;;16.48;10.13;;;;;;;;;;5076816;28;20035;-74
2022/12/14 13:33:59;;;;;;;13.02;9.40;;;6.90;88.50;;;;;;5077223;28;20032;-74
2022/12/14 13:36:41;;;;;;;14.05;10.43;;;;;;;;;;5079073;28;20098;-74
2022/12/14 13:39:07;;;;;;;15.77;10.90;;;;;;;;;;5070086;28;20675;-74
2022/12/14 13:41:38;;;;;;;16.48;11.43;;;;;;;;;;5076457;28;20036;-74
2022/12/14 13:44:17;;;;;;;16.42;12.02;;;;;;;;;;5065827;28;20376;-74
2022/12/14 13:46:43;;;;;;;14.45;10.93;;;10.30;83.80;;;;;;5079289;28;20045;-73
2022/12/14 13:49:17;;;;;;;13.30;9.68;;;;;;;;;;5085026;28;20090;-74
2022/12/14 13:51:48;;;;;;;14.18;9.75;;;14.00;70.70;;;;;;5086161;28;20509;-73
2022/12/14 13:54:20;;;;;;;13.25;9.40;;;;;;;;;;5068118;28;20384;-73
2022/12/14 13:56:46;;;;;;;13.50;10.02;;;;;;;;;;5079313;28;20490;-72
2022/12/14 13:59:22;;;;;;;12.75;9.63;;;;;;;;;;5082733;28;20036;-72
2022/12/14 14:01:48;;;;;;;13.25;9.32;;;;;;;;;;5081214;28;20444;-72
2022/12/14 14:04:19;;;;;;;12.25;9.32;;;;;;;;;;5084648;28;20154;-72
2022/12/14 14:06:45;;;;;;;14.55;9.50;;;;;;;;;;5087028;28;20052;-72
2022/12/14 14:09:30;;;;;;;12.95;9.13;;;;;;;;;;5083157;28;20409;-71
2022/12/14 14:11:57;;;;;;;12.00;8.63;;;;;;;;;;5087584;28;20040;-71
2022/12/14 14:14:33;;;;;;;13.48;8.68;;;;;;;;;;5091363;28;20036;-74
2022/12/14 14:17:02;;;;;;;13.07;8.23;;;;;;;;;;5086246;28;20080;-71
2022/12/14 14:19:34;;;;;;;10.02;7.80;;;;;;;;;;5079091;28;20525;-71
2022/12/14 14:22:00;;;;;;;14.93;8.48;;;;;;;;;;5094008;28;20036;-73
2022/12/14 14:24:27;;;;;;;13.63;8.18;;;;;;;;;;5076012;28;20426;-72
2022/12/14 14:26:59;;;;;;;15.10;8.68;;;;;;;;;;5084792;28;20032;-69
2022/12/14 14:29:29;;;;;;;10.63;8.13;;;;;;;;;;5082195;28;20040;-71
2022/12/14 14:31:55;;;;;;;12.00;9.25;;;;;;;;;;5082276;28;20046;-71
2022/12/14 14:34:23;;;;;;;10.77;7.57;;;;;;;;;;5077808;28;20089;-72
2022/12/14 14:36:53;;;;;;;14.63;9.32;;;;;;;;;;5081837;28;20122;-72
2022/12/14 14:39:30;;;;;;;15.15;9.07;;;;;;;;;;5069690;28;20089;-72
2022/12/14 14:41:57;;;;;;;11.18;8.73;;;;;;;;;;5084266;28;20127;-73